createdAt,value
2022-12-01T00:00:07.474Z,15.25
2022-12-01T00:02:09.296Z,14.23
2022-12-01T00:04:11.098Z,13.45
2022-12-01T00:06:17.323Z,15.00
2022-12-01T00:08:19.280Z,15.52
2022-12-01T00:10:21.184Z,15.55
2022-12-01T00:12:23.037Z,15.13
2022-12-01T00:14:25.098Z,13.85
2022-12-01T00:16:26.920Z,14.15
2022-12-01T00:18:28.915Z,14.45
2022-12-01T00:20:30.708Z,13.77
2022-12-01T00:22:32.393Z,14.80
2022-12-01T00:24:34.047Z,14.50
2022-12-01T00:26:36.889Z,16.13
2022-12-01T00:28:38.845Z,15.15
2022-12-01T00:30:40.651Z,14.50
2022-12-01T00:32:42.367Z,13.80
2022-12-01T00:34:44.304Z,14.90
2022-12-01T00:36:46.007Z,15.73
2022-12-01T00:38:47.805Z,17.45
2022-12-01T00:40:49.593Z,18.10
2022-12-01T00:42:51.427Z,14.30
2022-12-01T00:44:53.392Z,14.55
2022-12-01T00:46:55.076Z,15.43
2022-12-01T00:48:56.931Z,14.90
2022-12-01T00:50:58.705Z,15.13
2022-12-01T00:53:00.513Z,16.52
2022-12-01T00:55:02.303Z,16.00
2022-12-01T00:57:04.633Z,16.05
2022-12-01T00:59:06.441Z,15.18
2022-12-01T01:01:08.229Z,15.20
2022-12-01T01:03:10.676Z,16.88
2022-12-01T01:05:12.448Z,20.23
2022-12-01T01:07:14.216Z,16.38
2022-12-01T01:09:16.248Z,19.30
2022-12-01T01:11:18.036Z,15.18
2022-12-01T01:13:19.717Z,16.90
2022-12-01T01:15:21.599Z,14.95
2022-12-01T01:17:23.325Z,18.75
2022-12-01T01:19:25.147Z,15.45
2022-12-01T01:21:27.051Z,17.75
2022-12-01T01:23:28.855Z,17.00
2022-12-01T01:25:32.162Z,16.15
2022-12-01T01:27:34.822Z,16.60
2022-12-01T01:29:37.088Z,15.98
2022-12-01T01:31:38.995Z,17.50
2022-12-01T01:33:40.692Z,16.58
2022-12-01T01:35:42.425Z,16.00
2022-12-01T01:37:44.186Z,16.30
2022-12-01T01:39:46.191Z,19.60
2022-12-01T01:41:48.089Z,17.13
2022-12-01T01:43:50.606Z,18.75
2022-12-01T01:45:52.337Z,18.63
2022-12-01T01:47:54.278Z,16.92
2022-12-01T01:49:56.778Z,17.80
2022-12-01T01:51:58.587Z,17.23
2022-12-01T01:54:04.280Z,17.60
2022-12-01T01:56:06.235Z,17.98
2022-12-01T01:58:09.022Z,18.90
2022-12-01T02:00:13.300Z,19.20
2022-12-01T02:02:15.181Z,18.52
2022-12-01T02:04:16.884Z,19.45
2022-12-01T02:06:18.621Z,17.95
2022-12-01T02:08:20.463Z,20.67
2022-12-01T02:10:22.674Z,19.90
2022-12-01T02:12:47.154Z,18.70
2022-12-01T02:14:57.477Z,18.30
2022-12-01T02:17:04.596Z,19.35
2022-12-01T02:19:29.372Z,19.42
2022-12-01T02:22:21.674Z,17.98
2022-12-01T02:24:26.173Z,18.15
2022-12-01T02:26:52.110Z,17.55
2022-12-01T02:29:19.910Z,18.38
2022-12-01T02:31:47.656Z,18.98
2022-12-01T02:33:57.891Z,23.05
2022-12-01T02:36:33.445Z,18.17
2022-12-01T02:38:38.968Z,18.67
2022-12-01T02:41:05.085Z,22.08
2022-12-01T02:43:44.290Z,16.58
2022-12-01T02:46:15.346Z,19.98
2022-12-01T02:48:34.064Z,22.70
2022-12-01T02:50:35.869Z,18.77
2022-12-01T02:52:38.689Z,18.92
2022-12-01T02:54:40.421Z,18.73
2022-12-01T02:56:44.382Z,18.13
2022-12-01T02:58:46.151Z,17.60
2022-12-01T03:01:08.003Z,21.00
2022-12-01T03:03:21.459Z,17.73
2022-12-01T03:06:17.045Z,20.27
2022-12-01T03:08:52.771Z,17.77
2022-12-01T03:13:23.385Z,17.45
2022-12-01T03:15:34.040Z,16.83
2022-12-01T03:17:41.464Z,17.67
2022-12-01T03:19:53.911Z,19.63
2022-12-01T03:22:01.985Z,17.17
2022-12-01T03:24:22.709Z,19.13
2022-12-01T03:26:24.757Z,19.50
2022-12-01T03:28:30.718Z,17.92
2022-12-01T03:30:33.878Z,19.10
2022-12-01T03:32:39.035Z,16.92
2022-12-01T03:35:02.068Z,17.77
2022-12-01T03:37:16.560Z,20.67
2022-12-01T03:39:25.869Z,19.42
2022-12-01T03:41:30.253Z,18.52
2022-12-01T03:45:35.513Z,19.05
2022-12-01T03:47:37.278Z,21.92
2022-12-01T03:49:39.253Z,18.77
2022-12-01T03:51:46.074Z,22.92
2022-12-01T03:53:55.725Z,19.55
2022-12-01T03:56:00.994Z,26.02
2022-12-01T03:58:13.811Z,18.52
2022-12-01T04:00:15.774Z,19.23
2022-12-01T04:02:17.725Z,19.40
2022-12-01T04:04:19.661Z,18.35
2022-12-01T04:06:21.362Z,24.48
2022-12-01T04:08:23.131Z,23.15
2022-12-01T04:10:24.844Z,19.95
2022-12-01T04:12:26.626Z,19.48
2022-12-01T04:14:28.798Z,20.00
2022-12-01T04:16:30.766Z,20.35
2022-12-01T04:18:33.548Z,21.25
2022-12-01T04:20:35.318Z,25.13
2022-12-01T04:22:38.080Z,36.72
2022-12-01T04:24:39.885Z,25.38
2022-12-01T04:26:42.672Z,25.15
2022-12-01T04:28:44.618Z,21.52
2022-12-01T04:30:46.343Z,24.45
2022-12-01T04:32:48.144Z,23.45
2022-12-01T04:34:49.935Z,22.92
2022-12-01T04:36:51.895Z,28.23
2022-12-01T04:38:53.805Z,24.73
2022-12-01T04:40:55.642Z,22.77
2022-12-01T04:42:57.509Z,26.05
2022-12-01T04:44:59.241Z,24.02
2022-12-01T04:47:01.226Z,21.55
2022-12-01T04:49:03.445Z,22.85
2022-12-01T04:51:06.023Z,23.83
2022-12-01T04:53:07.675Z,21.25
2022-12-01T04:55:09.861Z,22.35
2022-12-01T04:57:11.494Z,21.17
2022-12-01T04:59:13.148Z,20.67
2022-12-01T05:01:15.775Z,20.10
2022-12-01T05:03:17.513Z,19.88
2022-12-01T05:05:19.139Z,22.58
2022-12-01T05:07:20.806Z,22.95
2022-12-01T05:09:22.487Z,21.02
2022-12-01T05:11:26.418Z,22.55
2022-12-01T05:13:28.059Z,21.85
2022-12-01T05:15:29.675Z,22.27
2022-12-01T05:17:36.811Z,22.85
2022-12-01T05:19:38.790Z,22.42
2022-12-01T05:21:40.962Z,23.08
2022-12-01T05:23:42.592Z,22.85
2022-12-01T05:25:44.224Z,22.40
2022-12-01T05:27:45.853Z,21.90
2022-12-01T05:29:47.884Z,22.75
2022-12-01T05:31:49.813Z,24.25
2022-12-01T05:33:51.459Z,21.48
2022-12-01T05:35:53.161Z,21.30
2022-12-01T05:37:54.800Z,21.08
2022-12-01T05:39:56.439Z,21.08
2022-12-01T05:41:58.071Z,19.67
2022-12-01T05:43:59.704Z,21.77
2022-12-01T05:46:01.425Z,21.55
2022-12-01T05:48:03.187Z,20.55
2022-12-01T05:50:06.117Z,21.05
2022-12-01T05:52:08.136Z,26.52
2022-12-01T05:54:09.857Z,22.13
2022-12-01T05:56:11.477Z,21.02
2022-12-01T05:58:13.141Z,21.00
2022-12-01T06:00:15.180Z,22.33
2022-12-01T06:02:16.834Z,21.77
2022-12-01T06:04:18.555Z,21.90
2022-12-01T06:06:20.405Z,21.70
2022-12-01T06:08:22.036Z,24.02
2022-12-01T06:10:23.683Z,23.90
2022-12-01T06:12:25.301Z,21.23
2022-12-01T06:14:26.930Z,21.70
2022-12-01T06:16:28.653Z,20.70
2022-12-01T06:18:31.890Z,20.58
2022-12-01T06:20:33.538Z,23.20
2022-12-01T06:22:35.164Z,21.45
2022-12-01T06:24:36.899Z,20.83
2022-12-01T06:26:38.538Z,22.40
2022-12-01T06:28:40.182Z,21.73
2022-12-01T06:30:41.856Z,22.73
2022-12-01T06:32:43.482Z,21.23
2022-12-01T06:34:45.117Z,21.15
2022-12-01T06:36:46.745Z,22.42
2022-12-01T06:38:48.365Z,24.10
2022-12-01T06:40:49.976Z,21.38
2022-12-01T06:42:51.614Z,25.33
2022-12-01T06:44:53.259Z,23.25
2022-12-01T06:46:54.929Z,20.50
2022-12-01T06:48:56.678Z,22.88
2022-12-01T06:50:59.087Z,25.30
2022-12-01T06:53:00.764Z,24.88
2022-12-01T06:55:02.893Z,20.38
2022-12-01T06:57:04.833Z,22.02
2022-12-01T06:59:06.788Z,24.67
2022-12-01T07:01:10.105Z,22.27
2022-12-01T07:03:11.785Z,22.33
2022-12-01T07:05:13.420Z,23.50
2022-12-01T07:07:15.061Z,22.50
2022-12-01T07:09:16.686Z,22.90
2022-12-01T07:11:18.457Z,24.40
2022-12-01T07:13:20.088Z,23.95
2022-12-01T07:15:21.715Z,21.38
2022-12-01T07:17:23.502Z,23.33
2022-12-01T07:19:25.141Z,27.20
2022-12-01T07:21:26.778Z,27.38
2022-12-01T07:23:28.593Z,27.50
2022-12-01T07:25:30.230Z,28.23
2022-12-01T07:27:31.977Z,28.02
2022-12-01T07:29:33.687Z,27.05
2022-12-01T07:31:35.434Z,26.63
2022-12-01T07:33:37.107Z,27.95
2022-12-01T07:35:38.763Z,28.60
2022-12-01T07:37:40.409Z,26.27
2022-12-01T07:39:42.086Z,24.80
2022-12-01T07:41:43.726Z,26.08
2022-12-01T07:43:45.385Z,24.67
2022-12-01T07:45:47.075Z,23.88
2022-12-01T07:47:52.195Z,24.92
2022-12-01T07:49:53.818Z,25.20
2022-12-01T07:51:55.458Z,25.42
2022-12-01T07:54:01.164Z,23.20
2022-12-01T07:56:07.015Z,24.63
2022-12-01T07:58:09.940Z,26.60
2022-12-01T08:00:12.272Z,26.88
2022-12-01T08:02:14.029Z,28.88
2022-12-01T08:04:15.763Z,31.23
2022-12-01T08:06:17.760Z,31.30
2022-12-01T08:08:19.463Z,33.47
2022-12-01T08:10:21.203Z,36.17
2022-12-01T08:12:22.886Z,30.55
2022-12-01T08:14:24.655Z,35.05
2022-12-01T08:16:26.371Z,33.33
2022-12-01T08:18:28.132Z,33.15
2022-12-01T08:20:29.821Z,34.90
2022-12-01T08:22:31.537Z,35.70
2022-12-01T08:24:33.231Z,37.85
2022-12-01T08:26:34.848Z,34.65
2022-12-01T08:28:36.495Z,36.72
2022-12-01T08:30:38.134Z,35.80
2022-12-01T08:32:39.769Z,35.00
2022-12-01T08:34:41.849Z,39.63
2022-12-01T08:36:43.901Z,35.47
2022-12-01T08:38:46.122Z,36.63
2022-12-01T08:40:47.564Z,35.00
2022-12-01T08:42:49.179Z,32.90
2022-12-01T08:44:50.854Z,35.95
2022-12-01T08:46:52.568Z,33.95
2022-12-01T08:48:54.765Z,35.75
2022-12-01T08:51:09.401Z,34.33
2022-12-01T08:53:11.025Z,44.50
2022-12-01T08:55:12.661Z,35.00
2022-12-01T08:57:14.288Z,34.53
2022-12-01T08:59:16.015Z,33.28
2022-12-01T09:01:18.208Z,32.05
2022-12-01T09:03:19.923Z,33.30
2022-12-01T09:05:21.581Z,33.13
2022-12-01T09:07:26.540Z,32.78
2022-12-01T09:09:28.857Z,34.08
2022-12-01T09:11:30.491Z,32.55
2022-12-01T09:13:33.224Z,36.50
2022-12-01T09:15:34.872Z,32.60
2022-12-01T09:17:36.510Z,33.28
2022-12-01T09:19:38.127Z,33.35
2022-12-01T09:21:39.855Z,37.30
2022-12-01T09:23:41.476Z,35.90
2022-12-01T09:25:43.232Z,33.88
2022-12-01T09:27:45.031Z,33.35
2022-12-01T09:29:47.063Z,34.97
2022-12-01T09:31:48.917Z,34.83
2022-12-01T09:33:57.797Z,37.33
2022-12-01T09:36:00.303Z,37.67
2022-12-01T09:38:01.996Z,36.40
2022-12-01T09:40:03.950Z,39.25
2022-12-01T09:42:13.836Z,30.80
2022-12-01T09:44:27.549Z,37.83
2022-12-01T09:46:32.885Z,35.08
2022-12-01T09:48:43.673Z,34.55
2022-12-01T09:50:45.350Z,39.35
2022-12-01T09:52:48.190Z,35.40
2022-12-01T09:54:49.936Z,33.55
2022-12-01T09:56:52.644Z,30.92
2022-12-01T09:58:59.470Z,29.33
2022-12-01T10:01:01.276Z,30.67
2022-12-01T10:03:08.915Z,28.15
2022-12-01T10:05:22.481Z,30.15
2022-12-01T10:07:24.844Z,29.25
2022-12-01T10:09:41.499Z,30.13
2022-12-01T10:11:43.953Z,30.50
2022-12-01T10:13:45.654Z,30.15
2022-12-01T10:15:59.428Z,31.98
2022-12-01T10:18:24.308Z,27.27
2022-12-01T10:20:30.895Z,30.50
2022-12-01T10:22:55.804Z,27.27
2022-12-01T10:25:10.683Z,26.90
2022-12-01T10:29:47.791Z,26.80
2022-12-01T10:31:53.875Z,27.80
2022-12-01T10:34:08.195Z,22.42
2022-12-01T10:36:10.192Z,24.17
2022-12-01T10:38:15.296Z,21.75
2022-12-01T10:40:17.444Z,21.92
2022-12-01T10:42:41.290Z,20.40
2022-12-01T10:44:43.021Z,18.88
2022-12-01T10:46:50.596Z,20.20
2022-12-01T10:49:08.190Z,18.42
2022-12-01T10:51:28.831Z,19.00
2022-12-01T10:53:49.080Z,17.40
2022-12-01T10:55:52.064Z,16.85
2022-12-01T10:58:06.145Z,16.02
2022-12-01T11:00:57.543Z,14.70
2022-12-01T11:22:31.315Z,86.65
2022-12-01T11:24:42.384Z,84.40
2022-12-01T11:26:44.175Z,84.68
2022-12-01T11:29:02.880Z,88.15
2022-12-01T11:31:13.653Z,84.43
2022-12-01T11:33:15.391Z,89.88
2022-12-01T11:35:19.495Z,91.82
2022-12-01T11:37:22.515Z,67.32
2022-12-01T11:39:36.501Z,92.18
2022-12-01T11:41:40.191Z,94.75
2022-12-01T11:43:46.768Z,100.97
2022-12-01T11:45:52.503Z,105.28
2022-12-01T11:48:03.377Z,93.90
2022-12-01T11:50:24.178Z,114.82
2022-12-01T11:52:36.916Z,117.57
2022-12-01T11:54:38.868Z,126.57
2022-12-01T11:56:40.705Z,111.43
2022-12-01T11:58:46.259Z,119.63
2022-12-01T12:00:52.091Z,116.55
2022-12-01T12:02:56.767Z,112.22
2022-12-01T12:05:30.959Z,111.07
2022-12-01T12:08:04.383Z,112.78
2022-12-01T12:10:43.458Z,110.88
2022-12-01T12:13:03.344Z,117.38
2022-12-01T12:15:16.863Z,117.13
2022-12-01T12:17:41.264Z,117.93
2022-12-01T12:20:16.236Z,116.35
2022-12-01T12:22:33.858Z,107.77
2022-12-01T12:25:20.474Z,100.80
2022-12-01T12:29:51.642Z,100.82
2022-12-01T12:32:03.443Z,92.45
2022-12-01T12:34:13.991Z,101.68
2022-12-01T12:36:27.687Z,88.93
2022-12-01T12:39:01.690Z,97.65
2022-12-01T12:41:25.106Z,96.93
2022-12-01T12:43:51.586Z,87.95
2022-12-01T12:45:56.306Z,90.03
2022-12-01T12:48:07.450Z,99.32
2022-12-01T12:50:15.268Z,94.00
2022-12-01T12:52:26.690Z,89.15
2022-12-01T12:54:41.891Z,92.45
2022-12-01T12:58:58.508Z,91.43
2022-12-01T13:05:09.389Z,93.97
2022-12-01T13:10:48.895Z,94.38
2022-12-01T13:15:51.517Z,90.68
2022-12-01T13:20:54.454Z,91.53
2022-12-01T13:25:57.559Z,93.78
2022-12-01T13:31:15.400Z,108.15
2022-12-01T13:36:46.780Z,97.07
2022-12-01T13:41:39.099Z,92.82
2022-12-01T13:46:44.107Z,68.00
2022-12-01T13:52:22.860Z,88.57
2022-12-01T13:57:26.957Z,97.45
2022-12-01T14:02:30.559Z,106.85
2022-12-01T14:07:34.911Z,100.07
2022-12-01T14:12:36.828Z,103.93
2022-12-01T14:17:38.700Z,75.67
2022-12-01T14:22:42.395Z,98.93
2022-12-01T14:27:44.439Z,95.07
2022-12-01T14:32:46.325Z,98.40
2022-12-01T14:37:48.838Z,67.33
2022-12-01T14:47:57.802Z,100.85
2022-12-01T14:53:07.294Z,89.50
2022-12-01T14:58:15.354Z,96.28
2022-12-01T15:03:19.664Z,97.78
2022-12-01T15:08:42.020Z,82.85
2022-12-01T15:13:48.777Z,91.32
2022-12-01T15:18:50.580Z,91.80
2022-12-01T15:24:03.394Z,79.60
2022-12-01T15:29:18.414Z,97.07
2022-12-01T15:34:27.139Z,93.03
2022-12-01T15:39:39.516Z,103.40
2022-12-01T15:44:41.385Z,100.40
2022-12-01T15:49:48.719Z,71.07
2022-12-01T15:54:50.841Z,100.53
2022-12-01T15:59:54.258Z,89.70
2022-12-01T16:05:10.085Z,99.03
2022-12-01T16:10:41.181Z,83.63
2022-12-01T16:15:43.537Z,81.88
2022-12-01T16:20:45.536Z,85.43
2022-12-01T16:25:47.479Z,86.72
2022-12-01T16:30:49.593Z,82.82
2022-12-01T16:35:51.638Z,89.53
2022-12-01T16:40:55.353Z,86.53
2022-12-01T16:46:02.058Z,87.30
2022-12-01T16:51:05.272Z,87.72
2022-12-01T16:56:09.419Z,78.55
2022-12-01T17:01:12.646Z,76.03
2022-12-01T17:06:17.048Z,77.65
2022-12-01T17:11:18.968Z,77.20
2022-12-01T17:16:20.987Z,61.38
2022-12-01T17:21:22.907Z,74.40
2022-12-01T17:26:24.841Z,71.70
2022-12-01T17:31:26.763Z,79.50
2022-12-01T17:36:28.751Z,51.55
2022-12-01T17:41:30.629Z,76.18
2022-12-01T17:46:32.444Z,53.90
2022-12-01T17:51:34.488Z,75.63
2022-12-01T17:56:36.597Z,51.17
2022-12-01T18:01:38.868Z,72.03
2022-12-01T18:06:42.067Z,68.53
2022-12-01T18:11:44.034Z,74.70
2022-12-01T18:16:46.038Z,75.30
2022-12-01T18:21:49.062Z,68.70
2022-12-01T18:26:50.955Z,77.53
2022-12-01T18:31:56.535Z,65.47
2022-12-01T18:36:58.661Z,79.25
2022-12-01T18:42:00.841Z,74.00
2022-12-01T18:47:02.975Z,66.95
2022-12-01T18:52:05.098Z,65.60
2022-12-01T18:57:07.216Z,60.67
2022-12-01T19:02:09.899Z,70.10
2022-12-01T19:07:12.072Z,66.22
2022-12-01T19:12:14.395Z,67.40
2022-12-01T19:22:18.141Z,68.28
2022-12-01T19:27:20.012Z,85.85
2022-12-01T19:32:21.982Z,72.07
2022-12-01T19:37:23.898Z,60.03
2022-12-01T19:42:25.794Z,63.50
2022-12-01T19:47:33.713Z,50.35
2022-12-01T19:52:36.396Z,60.08
2022-12-01T19:57:38.304Z,62.10
2022-12-01T20:02:40.342Z,63.60
2022-12-01T20:07:44.733Z,55.55
2022-12-01T20:12:50.358Z,64.43
2022-12-01T20:17:52.415Z,59.13
2022-12-01T20:22:54.317Z,41.50
2022-12-01T20:27:56.432Z,43.08
2022-12-01T20:32:58.287Z,62.10
2022-12-01T20:38:00.258Z,54.20
2022-12-01T20:43:02.175Z,57.53
2022-12-01T20:48:04.299Z,56.67
2022-12-01T20:53:06.246Z,64.47
2022-12-01T20:58:08.101Z,59.53
2022-12-01T21:03:10.480Z,43.85
2022-12-01T21:13:22.871Z,55.33
2022-12-01T21:18:25.966Z,60.88
2022-12-01T21:23:27.997Z,56.15
2022-12-01T21:28:30.367Z,53.35
2022-12-01T21:33:33.836Z,56.28
2022-12-01T21:38:35.721Z,54.20
2022-12-01T21:43:38.629Z,40.58
2022-12-01T21:48:40.675Z,47.75
2022-12-01T21:53:42.570Z,51.53
2022-12-01T21:58:44.637Z,46.25
2022-12-01T22:03:46.796Z,53.20
2022-12-01T22:08:53.997Z,54.17
2022-12-01T22:14:09.754Z,49.28
2022-12-01T22:19:32.629Z,46.47
2022-12-01T22:24:39.898Z,59.80
2022-12-01T22:29:46.091Z,58.15
2022-12-01T22:34:56.505Z,65.15
2022-12-01T22:39:58.466Z,57.95
2022-12-01T22:45:24.429Z,51.33
2022-12-01T22:50:32.827Z,46.65
2022-12-01T22:55:34.787Z,49.90
2022-12-01T23:00:36.873Z,49.35
2022-12-01T23:05:38.822Z,42.72
2022-12-01T23:10:40.642Z,46.45
2022-12-01T23:15:46.417Z,45.33
2022-12-01T23:20:50.620Z,43.25
2022-12-01T23:25:52.510Z,45.15
2022-12-01T23:30:55.804Z,51.22
2022-12-01T23:36:28.121Z,53.85
2022-12-01T23:41:40.307Z,52.25
2022-12-01T23:46:42.644Z,54.08
2022-12-01T23:56:52.425Z,51.40
